Overview Statistics Trail Chart Weather Telemetry Raw packets
 

This is the latest recevied weather packets stored in our database for station/object K7OWW-2. If no packets are shown the sender has not sent any weather packets the latest 10 day(s).

<< 1 2 3 4 >>
Time Temp. Humidity Pressure Rain* Wind** Luminosity Snow
1788696821 3.33° C 97% 1016.9 hPa 0 mm - - -
1788677922 6.67° C 94% 1018.7 hPa 5.08 mm - - -
1788677021 7.22° C 95% 1018.3 hPa 3.3 mm - - -
1788676122 7.78° C 95% 1017.8 hPa 1.02 mm - - -
1788632023 12.78° C 63% 1019.5 hPa 0 mm - - -
1788614023 -1.11° C 96% 1020.3 hPa 0 mm - - -
1788613124 -1.11° C 96% 1020.4 hPa 0 mm - - -
1788612223 -1.67° C 96% 1020.5 hPa 0 mm - - -
1788611324 -1.67° C 96% 1020.4 hPa 0 mm - - -
1788598724 -0.56° C 96% 1019.8 hPa 0 mm - - -
1788542941 4.44° C 96% 1016.6 hPa 0.25 mm - - -
1788542025 3.89° C 97% 1016.6 hPa 0.51 mm - - -
1788541126 3.89° C 97% 1016.6 hPa 0.51 mm - - -
1788539326 3.33° C 97% 1016.4 hPa 0.25 mm - - -
1788536626 3.89° C 98% 1016 hPa 0 mm - - -
1788535726 3.33° C 98% 1015.7 hPa 0 mm - - -
1788533926 2.78° C 98% 1015.4 hPa 0 mm - - -
1788524324 0.56° C 97% 1014.2 hPa 0 mm - - -
1788523724 0° C 97% 1014.2 hPa 0 mm - - -
1788523124 0° C 97% 1014 hPa 0 mm - - -
1788522524 0° C 97% 1014 hPa 0 mm - - -
1788521924 -0.56° C 97% 1014 hPa 0 mm - - -
1788521324 0° C 97% 1013.8 hPa 0 mm - - -
1788520724 0° C 97% 1013.8 hPa 0 mm - - -
1788520124 -0.56° C 96% 1013.8 hPa 0 mm - - -

* Rain latest hour (hover to see other rain measurements)
** Current wind speed in m/s (hover to see current wind gust speed)